Time;durP1;ratioP1;P1;durP2;ratioP2;P2;SDS_P1;SDS_P2;PMS_P1;PMS_P2;Temp;Humidity;BMP_temperature;BMP_pressure;BME280_temperature;BME280_humidity;BME280_pressure;Samples;Min_cycle;Max_cycle;Signal;HPM_P1;HPM_P2
2023/08/03 00:01:25;;;;;;;4.32;2.60;;;;;;;15.89;100.00;98947.50;7396115;19;20078;-67
2023/08/03 00:03:53;;;;;;;8.02;3.20;;;;;;;15.87;100.00;98949.44;7395266;19;20037;-67
2023/08/03 00:06:22;;;;;;;4.63;2.67;;;;;;;15.87;100.00;98954.72;7396193;19;20074;-67
2023/08/03 00:08:50;;;;;;;4.90;3.03;;;;;;;15.88;100.00;98961.69;7396943;19;20091;-67
2023/08/03 00:11:21;;;;;;;3.47;2.50;;;;;;;15.88;100.00;98955.56;7394974;19;20086;-67
2023/08/03 00:13:50;;;;;;;5.68;2.78;;;;;;;15.87;100.00;98952.09;7396420;19;20081;-67
2023/08/03 00:16:18;;;;;;;5.88;2.88;;;;;;;15.85;100.00;98948.69;7396043;19;20062;-67
2023/08/03 00:18:46;;;;;;;7.82;3.20;;;;;;;15.86;100.00;98952.16;7394907;19;20074;-67
2023/08/03 00:21:15;;;;;;;5.13;3.20;;;;;;;15.86;100.00;98953.03;7395494;19;20163;-67
2023/08/03 00:23:43;;;;;;;5.72;3.50;;;;;;;15.85;100.00;98967.19;7396005;19;20438;-67
2023/08/03 00:26:12;;;;;;;4.00;2.45;;;;;;;15.84;100.00;98965.50;7394198;19;20435;-67
2023/08/03 00:28:44;;;;;;;4.93;2.72;;;;;;;15.85;100.00;98963.72;7394635;19;20014;-67
2023/08/03 00:31:13;;;;;;;4.00;2.75;;;;;;;15.85;100.00;98984.88;7394232;19;20485;-67
2023/08/03 00:33:41;;;;;;;3.38;2.72;;;;;;;15.85;100.00;98974.31;7394453;19;20015;-68
2023/08/03 00:36:09;;;;;;;5.97;3.17;;;;;;;15.85;100.00;98979.59;7395515;19;20086;-67
2023/08/03 00:38:38;;;;;;;5.45;2.95;;;;;;;15.84;100.00;98972.59;7395599;19;20534;-67
2023/08/03 00:41:06;;;;;;;3.22;2.67;;;;;;;15.84;100.00;98972.59;7393560;19;20422;-68
2023/08/03 00:43:35;;;;;;;3.42;2.63;;;;;;;15.83;100.00;98973.56;7395442;19;20081;-68
2023/08/03 00:46:06;;;;;;;5.30;3.28;;;;;;;15.83;100.00;98984.13;7391307;19;20492;-67
2023/08/03 00:48:34;;;;;;;4.47;2.60;;;;;;;15.82;100.00;98974.50;7396133;19;20066;-67
2023/08/03 00:51:03;;;;;;;6.43;3.47;;;;;;;15.82;100.00;98979.78;7395634;19;20082;-72
2023/08/03 00:53:32;;;;;;;4.50;3.28;;;;;;;15.82;100.00;98982.44;7395203;19;20514;-67
2023/08/03 00:56:00;;;;;;;3.20;2.50;;;;;;;15.80;100.00;98980.72;7393289;19;20439;-66
2023/08/03 00:58:29;;;;;;;4.97;3.45;;;;;;;15.81;100.00;98994.78;7395184;19;20070;-67
2023/08/03 01:00:58;;;;;;;4.95;3.17;;;;;;;15.80;100.00;99012.44;7393152;19;20014;-67
2023/08/03 01:03:29;;;;;;;4.47;3.58;;;;;;;15.79;100.00;99001.97;7395048;19;20086;-67
2023/08/03 01:05:57;;;;;;;4.80;2.92;;;;;;;15.79;100.00;99025.78;7394663;19;20074;-65
2023/08/03 01:08:26;;;;;;;4.65;3.17;;;;;;;15.77;100.00;99023.25;7394410;19;20083;-65
2023/08/03 01:10:55;;;;;;;4.20;3.40;;;;;;;15.77;100.00;99025.03;7394876;19;20011;-66
2023/08/03 01:13:24;;;;;;;5.88;3.22;;;;;;;15.75;100.00;99030.44;7395661;19;20011;-66
2023/08/03 01:15:53;;;;;;;5.30;3.35;;;;;;;15.73;100.00;99029.72;7394162;19;20078;-66
2023/08/03 01:18:21;;;;;;;8.10;3.40;;;;;;;15.72;100.00;99032.44;7394514;19;20074;-65
2023/08/03 01:20:52;;;;;;;4.68;3.67;;;;;;;15.70;100.00;99031.72;7394358;19;20014;-66
2023/08/03 01:23:23;;;;;;;6.05;3.15;;;;;;;15.70;100.00;99034.38;7395215;19;20074;-66
2023/08/03 01:25:52;;;;;;;4.57;3.60;;;;;;;15.70;100.00;99035.19;7394009;19;20010;-67
2023/08/03 01:28:20;;;;;;;4.22;3.47;;;;;;;15.68;100.00;99041.56;7392784;19;20023;-66
2023/08/03 01:30:48;;;;;;;5.95;4.00;;;;;;;15.68;100.00;99041.56;7394107;19;20082;-66
2023/08/03 01:33:17;;;;;;;4.15;3.58;;;;;;;15.68;100.00;99044.19;7394127;19;20513;-66
2023/08/03 01:35:46;;;;;;;4.65;3.90;;;;;;;15.67;100.00;99032.78;7394151;19;20027;-66
2023/08/03 01:38:15;;;;;;;5.18;3.17;;;;;;;15.64;100.00;99022.41;7392012;19;20077;-65
2023/08/03 01:40:46;;;;;;;4.38;3.30;;;;;;;15.68;100.00;99023.03;7392145;19;20086;-66
2023/08/03 01:43:15;;;;;;;7.22;3.78;;;;;;;15.67;100.00;99024.00;7394750;19;20018;-66
2023/08/03 01:45:43;;;;;;;4.45;3.47;;;;;;;15.68;100.00;99025.69;7393589;19;20010;-66
2023/08/03 01:48:18;;;;;;;4.10;3.13;;;;;;;15.67;100.00;99027.50;7391022;19;20090;-65
2023/08/03 01:50:46;;;;;;;4.60;3.60;;;;;;;15.67;100.00;99031.91;7394010;19;20014;-66
2023/08/03 01:53:16;;;;;;;5.95;3.50;;;;;;;15.67;100.00;99032.78;7393998;19;20014;-66
2023/08/03 01:55:49;;;;;;;4.70;3.60;;;;;;;15.67;100.00;99024.84;7391725;19;20126;-66
2023/08/03 01:58:18;;;;;;;5.18;3.30;;;;;;;15.66;100.00;99017.88;7399909;19;20363;-66
2023/08/03 02:00:46;;;;;;;5.00;3.35;;;;;;;15.66;100.00;99019.66;7398474;19;20074;-66
2023/08/03 02:03:14;;;;;;;4.35;3.00;;;;;;;15.64;100.00;99018.00;7401116;19;20014;-66
2023/08/03 02:05:43;;;;;;;4.20;3.00;;;;;;;15.64;100.00;99018.00;7400374;19;20078;-67
2023/08/03 02:08:12;;;;;;;4.28;3.20;;;;;;;15.63;100.00;99020.72;7400926;19;20022;-66
2023/08/03 02:10:41;;;;;;;4.70;3.28;;;;;;;15.63;100.00;99020.72;7400373;19;20481;-66
2023/08/03 02:13:12;;;;;;;4.30;3.67;;;;;;;15.62;100.00;99021.69;7400714;19;20018;-66
2023/08/03 02:15:41;;;;;;;3.85;2.75;;;;;;;15.62;100.00;99016.41;7398378;19;20006;-67
2023/08/03 02:18:10;;;;;;;3.22;2.65;;;;;;;15.62;100.00;99014.59;7400043;19;20011;-65
2023/08/03 02:20:38;;;;;;;3.67;3.33;;;;;;;15.63;100.00;99015.44;7400446;19;20011;-65
2023/08/03 02:23:06;;;;;;;4.00;2.97;;;;;;;15.63;100.00;99012.78;7397976;19;20078;-65
2023/08/03 02:25:35;;;;;;;4.47;2.70;;;;;;;15.63;100.00;99018.94;7400296;19;20166;-65
2023/08/03 02:28:03;;;;;;;2.95;2.60;;;;;;;15.63;100.00;99015.44;7399965;19;20085;-66
2023/08/03 02:30:36;;;;;;;8.30;2.60;;;;;;;15.63;100.00;99012.78;7400157;19;20038;-66
2023/08/03 02:33:05;;;;;;;3.90;2.45;;;;;;;15.63;100.00;99010.13;7400429;19;20010;-66
2023/08/03 02:35:37;;;;;;;5.38;2.45;;;;;;;15.63;100.00;99007.50;7399890;19;20023;-65
2023/08/03 02:38:05;;;;;;;5.18;2.75;;;;;;;15.63;100.00;99007.50;7399258;19;20489;-66
2023/08/03 02:40:34;;;;;;;6.88;2.65;;;;;;;15.62;100.00;99009.31;7397031;19;20035;-65
2023/08/03 02:43:02;;;;;;;4.65;2.00;;;;;;;15.61;100.00;99010.25;7397264;19;20018;-66
2023/08/03 02:45:30;;;;;;;4.43;2.28;;;;;;;15.62;100.00;99011.13;7399327;19;20497;-66
2023/08/03 02:48:01;;;;;;;4.15;2.20;;;;;;;15.63;100.00;99010.13;7396562;19;20098;-66
2023/08/03 02:50:30;;;;;;;3.97;2.47;;;;;;;15.63;100.00;99018.06;7399186;19;20074;-66
2023/08/03 02:52:58;;;;;;;4.47;2.70;;;;;;;15.62;100.00;99019.06;7399394;19;20089;-66
2023/08/03 02:55:27;;;;;;;3.80;2.20;;;;;;;15.61;100.00;99018.19;7397460;19;20031;-66
2023/08/03 02:57:55;;;;;;;3.08;2.20;;;;;;;15.59;100.00;99014.78;7396533;19;20379;-66
2023/08/03 03:00:23;;;;;;;6.38;2.20;;;;;;;15.57;100.00;99014.06;7399093;19;20073;-66
2023/08/03 03:02:52;;;;;;;6.72;3.03;;;;;;;15.56;100.00;99008.91;7396647;19;20085;-66
2023/08/03 03:05:23;;;;;;;4.57;2.47;;;;;;;15.55;100.00;99013.31;7398404;19;20010;-66
2023/08/03 03:07:51;;;;;;;5.40;2.15;;;;;;;15.55;100.00;99015.97;7395607;19;20046;-67
2023/08/03 03:10:20;;;;;;;4.22;2.28;;;;;;;15.55;100.00;99013.31;7398117;19;20018;-66
2023/08/03 03:12:48;;;;;;;6.63;2.65;;;;;;;15.56;100.00;99014.19;7398352;19;20086;-66
2023/08/03 03:15:17;;;;;;;6.32;2.03;;;;;;;15.55;100.00;99017.78;7395832;19;20006;-66
2023/08/03 03:17:45;;;;;;;8.20;2.17;;;;;;;15.54;100.00;99010.81;7395443;19;20014;-66
2023/08/03 03:20:14;;;;;;;6.63;3.50;;;;;;;15.54;100.00;99009.00;7397553;19;20021;-67
2023/08/03 03:22:45;;;;;;;7.30;2.40;;;;;;;15.53;100.00;99009.09;7395548;19;20015;-66
2023/08/03 03:25:14;;;;;;;5.80;2.10;;;;;;;15.54;100.00;99011.63;7397395;19;20477;-65
2023/08/03 03:27:42;;;;;;;7.55;2.53;;;;;;;15.53;100.00;99017.91;7395176;19;20018;-66
2023/08/03 03:30:11;;;;;;;11.50;2.60;;;;;;;15.54;100.00;99016.09;7396886;19;20018;-66
2023/08/03 03:32:39;;;;;;;8.80;3.75;;;;;;;15.54;100.00;99018.72;7397239;19;20021;-66
2023/08/03 03:35:08;;;;;;;5.97;3.60;;;;;;;15.53;100.00;99017.91;7395967;19;20066;-66
2023/08/03 03:37:37;;;;;;;4.90;2.58;;;;;;;15.54;100.00;99013.44;7394677;19;20169;-65
2023/08/03 03:40:10;;;;;;;4.72;2.20;;;;;;;15.53;100.00;99009.97;7393498;19;20563;-66
2023/08/03 03:42:38;;;;;;;4.60;2.00;;;;;;;15.54;100.00;99010.81;7394972;19;20078;-65
2023/08/03 03:45:08;;;;;;;5.25;2.13;;;;;;;15.56;100.00;99012.38;7393734;19;20029;-65
2023/08/03 03:47:37;;;;;;;7.68;2.33;;;;;;;15.57;100.00;99016.72;7393802;19;20078;-66
2023/08/03 03:50:06;;;;;;;8.75;2.25;;;;;;;15.59;100.00;99008.69;7396106;19;20027;-65
2023/08/03 03:52:34;;;;;;;3.95;2.10;;;;;;;15.61;100.00;99004.13;7396387;19;20423;-67
2023/08/03 03:55:03;;;;;;;12.68;2.83;;;;;;;15.62;100.00;99003.19;7393745;19;20498;-66
2023/08/03 03:57:34;;;;;;;8.88;2.38;;;;;;;15.63;100.00;99004.84;7395512;19;20014;-67
2023/08/03 04:00:04;;;;;;;6.65;1.92;;;;;;;15.65;100.00;99008.25;7397009;19;20070;-67
2023/08/03 04:02:32;;;;;;;8.50;2.35;;;;;;;15.66;100.00;99009.94;7396682;19;20482;-66
2023/08/03 04:05:01;;;;;;;4.60;1.70;;;;;;;15.69;100.00;99016.81;7397103;19;20078;-66
2023/08/03 04:07:29;;;;;;;9.63;2.03;;;;;;;15.70;100.00;99016.69;7395504;19;20031;-66
2023/08/03 04:09:58;;;;;;;9.10;3.65;;;;;;;15.71;100.00;99015.75;7396460;19;20024;-66
2023/08/03 04:12:26;;;;;;;6.25;2.78;;;;;;;15.72;100.00;99009.50;7397371;19;20010;-66
2023/08/03 04:14:57;;;;;;;7.88;2.30;;;;;;;15.74;100.00;99012.88;7396846;19;20007;-66
2023/08/03 04:17:26;;;;;;;8.30;1.83;;;;;;;15.76;100.00;99012.78;7395279;19;20027;-67
2023/08/03 04:19:54;;;;;;;11.45;2.78;;;;;;;15.77;100.00;99023.25;7394020;19;20014;-66
2023/08/03 04:22:23;;;;;;;8.60;1.90;;;;;;;15.79;100.00;99023.13;7394612;19;20078;-67
2023/08/03 04:24:51;;;;;;;8.52;2.33;;;;;;;15.77;100.00;99028.53;7395802;19;20081;-67
2023/08/03 04:27:20;;;;;;;7.50;1.70;;;;;;;15.77;100.00;99025.88;7394903;19;20014;-67
2023/08/03 04:29:48;;;;;;;8.25;2.08;;;;;;;15.78;100.00;99029.38;7396109;19;20010;-67
2023/08/03 04:32:19;;;;;;;8.55;2.35;;;;;;;15.79;100.00;99023.97;7395353;19;20422;-67
2023/08/03 04:34:47;;;;;;;7.50;2.03;;;;;;;15.79;100.00;99029.25;7394568;19;20011;-68
2023/08/03 04:37:16;;;;;;;8.73;2.67;;;;;;;15.80;100.00;99027.47;7393785;19;20088;-66
2023/08/03 04:39:44;;;;;;;7.50;1.88;;;;;;;15.80;100.00;99028.31;7395597;19;20010;-66
2023/08/03 04:42:13;;;;;;;6.70;1.98;;;;;;;15.80;100.00;99027.47;7395089;19;20070;-66
2023/08/03 04:44:41;;;;;;;10.35;1.77;;;;;;;15.80;100.00;99030.94;7393567;19;20489;-66
2023/08/03 04:47:10;;;;;;;8.95;1.90;;;;;;;15.83;100.00;99031.72;7393758;19;20074;-66
2023/08/03 04:49:41;;;;;;;6.10;2.00;;;;;;;15.81;100.00;99018.59;7395688;19;20086;-67
2023/08/03 04:52:10;;;;;;;11.15;2.53;;;;;;;15.81;100.00;99023.88;7395003;19;20023;-67
2023/08/03 04:54:38;;;;;;;4.47;1.80;;;;;;;15.83;100.00;99021.16;7394901;19;20416;-65
2023/08/03 04:57:07;;;;;;;7.78;1.65;;;;;;;15.82;100.00;99022.09;7393815;19;20015;-66
2023/08/03 04:59:36;;;;;;;8.43;1.90;;;;;;;15.83;100.00;99021.16;7395182;19;20023;-67
2023/08/03 05:02:04;;;;;;;13.07;2.03;;;;;;;15.85;100.00;99019.25;7394708;19;20073;-67
2023/08/03 05:04:33;;;;;;;7.60;1.90;;;;;;;15.89;99.96;99018.06;7395461;19;20028;-67
2023/08/03 05:07:04;;;;;;;8.57;1.58;;;;;;;15.91;99.49;99019.66;7393004;19;20031;-67
2023/08/03 05:09:32;;;;;;;7.25;2.10;;;;;;;15.96;99.42;99021.94;7394472;19;20010;-66
2023/08/03 05:12:01;;;;;;;11.38;2.08;;;;;;;15.99;99.41;99021.75;7394135;19;20082;-66
2023/08/03 05:14:29;;;;;;;4.97;1.40;;;;;;;16.03;99.27;99017.91;7394562;19;20086;-66
2023/08/03 05:16:58;;;;;;;6.18;2.03;;;;;;;16.08;98.88;99028.16;7393525;19;20014;-66
2023/08/03 05:19:26;;;;;;;7.53;1.60;;;;;;;16.15;98.33;99025.91;7393520;19;20077;-66
2023/08/03 05:21:55;;;;;;;5.43;2.83;;;;;;;16.20;97.06;99027.28;7392294;19;20078;-66
2023/08/03 05:24:26;;;;;;;4.15;1.50;;;;;;;16.30;97.22;99030.09;7392250;19;20022;-67
2023/08/03 05:26:54;;;;;;;6.32;1.48;;;;;;;16.38;96.74;99034.84;7393010;19;20017;-67
2023/08/03 05:29:23;;;;;;;7.32;1.65;;;;;;;16.43;96.29;99022.94;7394175;19;20062;-67
2023/08/03 05:31:51;;;;;;;7.10;1.40;;;;;;;16.51;95.46;99026.84;7398699;19;20015;-66
2023/08/03 05:34:20;;;;;;;7.50;1.83;;;;;;;16.56;94.68;99030.81;7401852;19;20069;-66
2023/08/03 05:36:48;;;;;;;5.90;1.65;;;;;;;16.64;94.43;99029.41;7400258;19;20035;-66
2023/08/03 05:39:17;;;;;;;9.43;1.50;;;;;;;16.71;93.81;99017.44;7401217;19;20481;-66
2023/08/03 05:41:48;;;;;;;8.48;1.50;;;;;;;16.78;93.95;99027.44;7401206;19;20483;-66
2023/08/03 05:44:18;;;;;;;6.68;1.58;;;;;;;16.86;93.22;99018.09;7399054;19;20093;-66
2023/08/03 05:46:47;;;;;;;10.05;1.67;;;;;;;16.93;91.98;99030.78;7397999;19;20498;-66
2023/08/03 05:49:15;;;;;;;9.50;1.60;;;;;;;17.00;90.50;99031.13;7398402;19;20083;-66
2023/08/03 05:51:44;;;;;;;3.67;1.38;;;;;;;17.08;91.42;99020.78;7398638;19;20066;-66
2023/08/03 05:54:17;;;;;;;9.32;2.28;;;;;;;17.16;89.33;99029.97;7400928;19;20496;-66
2023/08/03 05:56:48;;;;;;;9.15;1.50;;;;;;;17.24;88.11;99040.84;7399573;19;20014;-67
2023/08/03 05:59:27;;;;;;;5.88;1.77;;;;;;;17.31;88.36;99036.72;7398810;19;20023;-67
2023/08/03 06:01:56;;;;;;;6.40;1.30;;;;;;;17.41;88.53;99043.03;7401347;19;20018;-66
2023/08/03 06:04:25;;;;;;;3.95;1.10;;;;;;;17.47;87.66;99038.22;7397947;19;20074;-67
2023/08/03 06:06:53;;;;;;;7.80;1.88;;;;;;;17.54;87.45;99039.41;7398663;19;20533;-66
2023/08/03 06:09:24;;;;;;;8.90;1.70;;;;;;;17.59;87.00;99046.06;7400675;19;20031;-66
2023/08/03 06:11:55;;;;;;;7.72;1.35;;;;;;;17.66;86.64;99040.28;7398364;19;20018;-67
2023/08/03 06:14:24;;;;;;;10.02;2.30;;;;;;;17.71;87.04;99046.06;7397793;19;20018;-66
2023/08/03 06:16:52;;;;;;;7.40;1.73;;;;;;;17.75;85.31;99043.06;7398981;19;20402;-66
2023/08/03 06:19:21;;;;;;;4.85;1.30;;;;;;;17.82;84.17;99042.53;7400303;19;20010;-66
2023/08/03 06:21:49;;;;;;;6.65;1.58;;;;;;;17.89;83.34;99043.75;7397584;19;20022;-66
2023/08/03 06:24:18;;;;;;;6.22;1.27;;;;;;;17.95;79.82;99045.13;7398128;19;20085;-66
2023/08/03 06:26:47;;;;;;;4.05;1.60;;;;;;;18.01;82.65;99042.81;7398941;19;20014;-66
2023/08/03 06:29:20;;;;;;;4.53;1.23;;;;;;;18.07;79.38;99050.28;7397252;19;20024;-66
2023/08/03 06:31:49;;;;;;;8.60;1.95;;;;;;;18.14;80.38;99057.75;7397907;19;20035;-65
2023/08/03 06:34:18;;;;;;;5.35;0.85;;;;;;;18.20;78.63;99049.31;7400512;19;20015;-66
2023/08/03 06:36:48;;;;;;;10.80;1.73;;;;;;;18.26;79.19;99058.56;7398535;19;20078;-66
2023/08/03 06:39:17;;;;;;;7.57;1.55;;;;;;;18.30;79.75;99063.50;7397169;19;20014;-66
2023/08/03 06:41:45;;;;;;;5.57;1.10;;;;;;;18.35;78.36;99058.66;7399323;19;20014;-65
2023/08/03 06:44:14;;;;;;;4.25;1.27;;;;;;;18.42;75.05;99048.38;7395431;19;20074;-65
2023/08/03 06:46:46;;;;;;;2.70;1.17;;;;;;;18.50;75.67;99072.50;7397049;19;20031;-65
2023/08/03 06:49:14;;;;;;;4.18;1.60;;;;;;;18.59;74.96;99080.69;7397255;19;20359;-65
2023/08/03 06:51:43;;;;;;;6.53;2.13;;;;;;;18.67;72.70;99068.47;7398994;19;20077;-66
2023/08/03 06:54:11;;;;;;;5.35;1.23;;;;;;;18.78;72.83;99083.53;7399126;19;20070;-66
2023/08/03 06:56:40;;;;;;;3.85;1.02;;;;;;;18.86;73.44;99081.06;7398004;19;20031;-67
2023/08/03 06:59:08;;;;;;;5.75;1.10;;;;;;;18.96;71.96;99077.69;7398349;19;20023;-67
2023/08/03 07:01:37;;;;;;;6.70;1.15;;;;;;;19.00;72.43;99079.94;7398747;19;20022;-66
2023/08/03 07:04:08;;;;;;;6.18;1.25;;;;;;;19.07;71.21;99084.75;7396230;19;20070;-66
2023/08/03 07:06:36;;;;;;;4.63;1.13;;;;;;;19.14;69.07;99091.25;7397397;19;20518;-67
2023/08/03 07:09:05;;;;;;;5.90;0.80;;;;;;;19.25;69.43;99085.03;7398096;19;20024;-66
2023/08/03 07:11:33;;;;;;;5.18;1.48;;;;;;;19.34;71.10;99106.34;7398508;19;20023;-66
2023/08/03 07:14:02;;;;;;;3.72;0.85;;;;;;;19.42;68.16;99104.88;7398028;19;20022;-66
2023/08/03 07:16:31;;;;;;;4.47;0.90;;;;;;;19.49;70.19;99112.19;7397044;19;20090;-66
2023/08/03 07:18:59;;;;;;;2.38;0.77;;;;;;;19.56;68.72;99091.22;7397690;19;20006;-66
2023/08/03 07:21:30;;;;;;;2.63;0.77;;;;;;;19.66;67.16;99118.75;7397992;19;20017;-66
2023/08/03 07:23:59;;;;;;;5.68;0.73;;;;;;;19.75;66.07;99116.25;7396536;19;20513;-66
2023/08/03 07:26:27;;;;;;;3.08;0.50;;;;;;;19.85;67.80;99103.88;7397250;19;20018;-66
2023/08/03 07:28:56;;;;;;;3.47;0.50;;;;;;;19.93;65.77;99130.66;7395809;19;20031;-66
2023/08/03 07:31:25;;;;;;;3.25;0.85;;;;;;;19.95;63.57;99126.03;7396300;19;20083;-65
2023/08/03 07:33:54;;;;;;;4.00;0.60;;;;;;;19.99;63.31;99124.81;7397341;19;20034;-65
2023/08/03 07:36:22;;;;;;;2.08;0.45;;;;;;;19.96;62.69;99143.69;7396914;19;20066;-66
2023/08/03 07:39:00;;;;;;;4.45;0.63;;;;;;;19.95;64.61;99135.84;7396907;19;20099;-66
2023/08/03 07:41:28;;;;;;;1.83;0.68;;;;;;;19.96;65.13;99140.22;7397547;19;20027;-66
2023/08/03 07:43:57;;;;;;;5.90;0.68;;;;;;;19.93;62.82;99120.03;7396146;19;20015;-66
2023/08/03 07:46:25;;;;;;;5.57;0.75;;;;;;;19.95;63.69;99143.84;7395618;19;20473;-66
2023/08/03 07:49:00;;;;;;;0.93;0.40;;;;;;;19.92;64.39;99146.78;7394779;19;20011;-66
2023/08/03 07:51:29;;;;;;;2.55;0.50;;;;;;;19.88;65.14;99143.53;7395575;19;20070;-66
2023/08/03 07:54:00;;;;;;;3.08;0.52;;;;;;;19.85;63.98;99149.09;7396870;19;20031;-66
2023/08/03 07:56:29;;;;;;;1.85;0.55;;;;;;;19.82;65.07;99157.34;7395575;19;20006;-66
2023/08/03 07:58:58;;;;;;;1.95;0.55;;;;;;;19.80;66.04;99161.94;7396513;19;20035;-66
2023/08/03 08:01:27;;;;;;;2.15;0.50;;;;;;;19.78;64.56;99155.91;7395873;19;20399;-66
2023/08/03 08:03:55;;;;;;;5.63;0.47;;;;;;;19.79;65.58;99162.91;7395493;19;20074;-65
2023/08/03 08:06:24;;;;;;;4.30;0.80;;;;;;;19.77;64.54;99159.56;7394023;19;20014;-65
2023/08/03 08:08:54;;;;;;;3.35;0.70;;;;;;;19.77;65.03;99164.88;7395716;19;20019;-66
2023/08/03 08:11:25;;;;;;;3.83;0.90;;;;;;;19.79;64.59;99160.25;7396076;19;20032;-65
2023/08/03 08:13:55;;;;;;;2.38;0.30;;;;;;;19.80;65.60;99159.28;7396347;19;20070;-65
2023/08/03 08:16:24;;;;;;;0.90;0.30;;;;;;;19.83;65.89;99161.72;7395648;19;20497;-65
2023/08/03 08:18:52;;;;;;;6.90;0.40;;;;;;;19.87;65.73;99160.47;7395557;19;20513;-65
2023/08/03 08:21:21;;;;;;;1.20;0.40;;;;;;;19.91;65.58;99169.03;7396075;19;20014;-66
2023/08/03 08:23:49;;;;;;;2.67;1.10;;;;;;;19.94;65.13;99164.31;7395489;19;20011;-66
2023/08/03 08:26:20;;;;;;;1.20;0.30;;;;;;;19.97;65.61;99164.03;7395059;19;20011;-65
2023/08/03 08:28:56;;;;;;;1.20;0.38;;;;;;;19.99;65.79;99167.41;7396127;19;20007;-65
2023/08/03 08:31:25;;;;;;;1.30;0.50;;;;;;;19.98;66.00;99176.38;7396332;19;20026;-65
2023/08/03 08:33:53;;;;;;;1.23;0.47;;;;;;;19.95;66.23;99171.28;7394471;19;20073;-65
2023/08/03 08:36:22;;;;;;;2.15;0.40;;;;;;;19.94;65.62;99180.28;7394553;19;20379;-65
2023/08/03 08:38:50;;;;;;;0.80;0.43;;;;;;;19.93;66.27;99175.91;7393527;19;20481;-65
2023/08/03 08:41:18;;;;;;;3.45;0.65;;;;;;;19.91;65.77;99174.38;7395550;19;20010;-65
2023/08/03 08:43:47;;;;;;;3.58;0.57;;;;;;;19.92;66.25;99171.56;7394767;19;20090;-65
2023/08/03 08:46:18;;;;;;;3.83;0.65;;;;;;;19.94;65.55;99182.94;7394971;19;20014;-65
2023/08/03 08:48:47;;;;;;;2.10;0.22;;;;;;;20.01;65.74;99175.25;7393853;19;20355;-66
2023/08/03 08:51:18;;;;;;;1.25;0.22;;;;;;;20.07;65.28;99185.38;7393285;19;20481;-65
2023/08/03 08:53:47;;;;;;;1.05;0.32;;;;;;;20.18;64.30;99173.78;7394798;19;20015;-65
2023/08/03 08:56:16;;;;;;;1.63;0.38;;;;;;;20.31;64.46;99177.06;7394400;19;20079;-65
2023/08/03 08:58:44;;;;;;;4.82;0.70;;;;;;;20.42;64.28;99189.44;7394645;19;20378;-65
2023/08/03 09:01:13;;;;;;;1.40;0.40;;;;;;;20.43;63.18;99185.78;7394452;19;20010;-66
2023/08/03 09:03:52;;;;;;;1.70;0.28;;;;;;;20.43;61.50;99195.63;7393634;19;20037;-66
2023/08/03 09:06:22;;;;;;;2.17;0.30;;;;;;;20.40;63.15;99186.06;7400457;19;20049;-66
2023/08/03 09:08:55;;;;;;;1.60;0.30;;;;;;;20.41;62.71;99197.56;7407034;19;20409;-66
2023/08/03 09:11:40;;;;;;;1.98;0.47;;;;;;;20.42;60.96;99184.13;7409157;19;20045;-66
2023/08/03 09:14:09;;;;;;;2.60;0.30;;;;;;;20.49;61.18;99190.56;7408946;19;20018;-66
2023/08/03 09:16:38;;;;;;;0.73;0.20;;;;;;;20.57;61.35;99189.91;7407577;19;20014;-66
2023/08/03 09:19:40;;;;;;;0.68;0.20;;;;;;;20.67;59.42;99196.13;7408860;19;20025;-66
2023/08/03 09:22:09;;;;;;;1.38;0.30;;;;;;;20.77;61.33;99193.50;7407427;19;20018;-66
2023/08/03 09:24:37;;;;;;;1.25;0.30;;;;;;;20.86;59.57;99194.50;7407633;19;20090;-67
2023/08/03 09:27:06;;;;;;;1.45;0.40;;;;;;;20.93;60.31;99194.81;7406907;19;20011;-66
2023/08/03 09:29:35;;;;;;;1.85;0.30;;;;;;;21.01;59.50;99196.78;7405897;19;20035;-67
2023/08/03 09:32:05;;;;;;;2.40;0.50;;;;;;;21.12;58.55;99201.97;7408486;19;20416;-66
2023/08/03 09:34:42;;;;;;;3.25;0.60;;;;;;;21.21;58.34;99200.31;7409643;19;20015;-65
2023/08/03 09:37:11;;;;;;;1.95;0.93;;;;;;;21.27;58.57;99216.59;7406326;19;20086;-67
2023/08/03 09:39:41;;;;;;;3.50;0.52;;;;;;;21.29;57.24;99217.28;7408305;19;20014;-66
2023/08/03 09:42:11;;;;;;;9.68;1.35;;;;;;;21.32;57.53;99208.16;7407956;19;20011;-66
2023/08/03 09:44:41;;;;;;;0.47;0.20;;;;;;;21.38;58.29;99214.75;7406833;19;20343;-67
2023/08/03 09:47:09;;;;;;;3.55;0.60;;;;;;;21.46;57.86;99214.91;7406549;19;20015;-66
2023/08/03 09:49:53;;;;;;;3.13;0.40;;;;;;;21.51;56.71;99217.13;7405578;19;20036;-66
2023/08/03 09:52:25;;;;;;;3.55;0.82;;;;;;;21.52;57.52;99219.69;7407377;19;20012;-66
2023/08/03 09:55:01;;;;;;;2.25;0.30;;;;;;;21.53;56.21;99232.00;7408178;19;20014;-66
2023/08/03 09:57:35;;;;;;;2.80;1.02;;;;;;;21.53;56.01;99215.19;7405737;19;20529;-66
2023/08/03 10:00:08;;;;;;;0.82;0.20;;;;;;;21.55;55.20;99202.53;7405242;19;20078;-66
2023/08/03 10:02:53;;;;;;;2.80;0.60;;;;;;;21.62;56.26;99215.22;7407962;19;20365;-66
2023/08/03 10:05:27;;;;;;;3.55;0.30;;;;;;;21.72;55.73;99209.00;7405592;19;20019;-66
2023/08/03 10:07:59;;;;;;;2.13;0.40;;;;;;;;;;7404859;19;20029;-65
2023/08/03 10:10:31;;;;;;;1.50;0.38;;;;;;;21.72;54.69;99228.53;7404858;19;20014;-65
2023/08/03 10:13:04;;;;;;;2.15;0.30;;;;;;;21.70;54.25;99227.84;7407748;19;20094;-65
2023/08/03 10:15:33;;;;;;;2.08;0.40;;;;;;;21.64;55.05;99245.25;7407709;19;20033;-66
2023/08/03 10:18:02;;;;;;;1.48;0.40;;;;;;;21.61;56.35;99240.19;7397431;19;20014;-66
2023/08/03 10:20:34;;;;;;;2.15;0.50;;;;;;;21.52;57.40;99242.84;7399389;19;20031;-66
2023/08/03 10:23:11;;;;;;;1.65;0.22;;;;;;;21.31;58.15;99239.31;7399825;19;20093;-66
2023/08/03 10:26:03;;;;;;;2.92;0.38;;;;;;;21.14;57.40;99237.31;7397666;19;20066;-65
2023/08/03 10:28:48;;;;;;;0.75;0.30;;;;;;;21.02;57.78;99249.13;7397971;19;20517;-66
2023/08/03 10:31:18;;;;;;;2.88;2.30;;;;;;;20.90;58.30;99243.91;7399906;19;20014;-65
2023/08/03 10:34:12;;;;;;;0.30;0.20;;;;;;;20.85;58.47;99255.94;7398770;19;20010;-66
2023/08/03 10:36:57;;;;;;;2.67;0.47;;;;;;;20.86;57.52;99239.81;7399272;19;20031;-65
2023/08/03 10:39:48;;;;;;;0.52;0.20;;;;;;;20.93;57.43;99258.78;7400017;19;20382;-65
2023/08/03 10:42:22;;;;;;;1.95;0.45;;;;;;;21.04;58.18;99241.81;7400714;19;20017;-66
2023/08/03 10:44:50;;;;;;;2.10;0.35;;;;;;;21.18;58.02;99236.09;7397209;19;20091;-65
2023/08/03 10:47:27;;;;;;;2.13;0.30;;;;;;;21.37;55.34;99255.75;7396740;19;20010;-66
2023/08/03 10:49:58;;;;;;;4.00;0.22;;;;;;;21.55;54.16;99246.09;7396583;19;20376;-66
2023/08/03 10:52:33;;;;;;;3.85;0.30;;;;;;;21.72;53.77;99233.84;7398817;19;20011;-67
2023/08/03 10:55:22;;;;;;;1.23;0.15;;;;;;;21.84;55.10;99247.03;7400024;19;20014;-65
2023/08/03 10:57:50;;;;;;;11.30;0.40;;;;;;;21.90;54.64;99257.16;7396049;19;20347;-66
2023/08/03 11:00:19;;;;;;;3.45;0.20;;;;;;;21.90;53.80;99250.00;7396382;19;20082;-65
2023/08/03 11:02:47;;;;;;;0.75;0.20;;;;;;;21.92;53.56;99237.34;7398864;19;20368;-66
2023/08/03 11:05:16;;;;;;;1.70;0.68;;;;;;;21.99;54.70;99260.81;7396836;19;20051;-65
2023/08/03 11:07:48;;;;;;;1.30;0.10;;;;;;;22.09;52.34;99256.28;7396190;19;20021;-65
2023/08/03 11:10:18;;;;;;;1.33;0.10;;;;;;;22.25;54.09;99245.84;7396904;19;20015;-65
2023/08/03 11:12:47;;;;;;;2.28;0.20;;;;;;;22.37;52.46;99243.00;7397992;19;20034;-64
2023/08/03 11:15:18;;;;;;;2.63;0.30;;;;;;;22.44;50.95;99244.13;7398006;19;20031;-67
2023/08/03 11:17:50;;;;;;;1.17;0.20;;;;;;;22.45;50.12;99259.16;7395764;19;20123;-65
2023/08/03 11:20:20;;;;;;;0.70;0.17;;;;;;;22.38;49.27;99266.06;7399051;19;20084;-66
2023/08/03 11:22:51;;;;;;;1.85;0.20;;;;;;;22.38;50.18;99258.91;7397634;19;20473;-65
2023/08/03 11:25:22;;;;;;;0.93;0.35;;;;;;;22.35;51.03;99264.50;7396099;19;20027;-65
2023/08/03 11:27:50;;;;;;;1.83;0.20;;;;;;;22.33;51.22;99257.63;7395305;19;20017;-65
2023/08/03 11:30:22;;;;;;;0.52;0.20;;;;;;;22.32;51.14;99259.47;7396728;19;20002;-67
2023/08/03 11:32:50;;;;;;;1.17;0.20;;;;;;;22.29;50.70;99260.59;7398166;19;20098;-66
2023/08/03 11:35:19;;;;;;;1.55;0.20;;;;;;;22.31;51.88;99271.13;7397601;19;20074;-66
2023/08/03 11:37:47;;;;;;;0.35;0.10;;;;;;;22.37;52.07;99267.91;7395204;19;20363;-66
2023/08/03 11:40:19;;;;;;;3.25;0.40;;;;;;;22.39;49.65;99255.28;7397465;19;20062;-65
2023/08/03 11:42:48;;;;;;;0.70;0.25;;;;;;;22.42;49.88;99284.34;7397063;19;20495;-66